createdAt,value
2022-08-28T00:00:35.374Z,99772.81
2022-08-28T00:03:43.323Z,99772.81
2022-08-28T00:06:45.989Z,99773.56
2022-08-28T00:09:51.530Z,99760.03
2022-08-28T00:12:57.422Z,99765.94
2022-08-28T00:16:01.109Z,99770.22
2022-08-28T00:19:04.013Z,99760.69
2022-08-28T00:22:07.399Z,99767.25
2022-08-28T00:25:11.566Z,99761.19
2022-08-28T00:28:23.728Z,99760.47
2022-08-28T00:31:27.231Z,99750.91
2022-08-28T00:34:33.268Z,99742.97
2022-08-28T00:37:35.823Z,99758.03
2022-08-28T00:40:39.498Z,99775.28
2022-08-28T00:43:44.324Z,99772.97
2022-08-28T00:46:48.736Z,99766.09
2022-08-28T00:49:52.920Z,99780.31
2022-08-28T00:53:00.079Z,99778.81
2022-08-28T00:56:05.179Z,99788.59
2022-08-28T00:59:16.307Z,99786.03
2022-08-28T01:02:18.945Z,99781.75
2022-08-28T01:05:22.120Z,99790.88
2022-08-28T01:08:24.429Z,99786.63
2022-08-28T01:11:28.992Z,99784.91
2022-08-28T01:14:32.387Z,99789.41
2022-08-28T01:17:35.567Z,99777.91
2022-08-28T01:20:41.842Z,99779.59
2022-08-28T01:23:49.492Z,99776.03
2022-08-28T01:26:51.758Z,99780.09
2022-08-28T01:29:55.329Z,99786.19
2022-08-28T01:32:58.139Z,99798.13
2022-08-28T01:36:00.991Z,99800.66
2022-08-28T01:39:05.664Z,99805.22
2022-08-28T01:42:08.371Z,99808.38
2022-08-28T01:45:14.542Z,99799.47
2022-08-28T01:48:17.456Z,99808.59
2022-08-28T01:51:24.393Z,99806.25
2022-08-28T01:54:28.848Z,99812.44
2022-08-28T01:57:31.149Z,99812.72
2022-08-28T02:00:34.127Z,99810.94
2022-08-28T02:03:36.718Z,99802.84
2022-08-28T02:06:39.154Z,99808.84
2022-08-28T02:09:41.887Z,99784.28
2022-08-28T02:12:44.650Z,99794.81
2022-08-28T02:15:47.299Z,99796.69
2022-08-28T02:18:50.026Z,99794.97
2022-08-28T02:21:52.520Z,99788.75
2022-08-28T02:24:55.018Z,99774.72
2022-08-28T02:27:57.596Z,99767.75
2022-08-28T02:31:00.082Z,99779.31
2022-08-28T02:34:02.943Z,99773.09
2022-08-28T02:37:07.959Z,99765.28
2022-08-28T02:40:14.301Z,99776.06
2022-08-28T02:43:17.317Z,99779.59
2022-08-28T02:46:20.007Z,99777.91
2022-08-28T02:49:23.947Z,99777.06
2022-08-28T02:52:27.053Z,99776.25
2022-08-28T02:55:34.004Z,99778.94
2022-08-28T02:58:36.825Z,99771.03
2022-08-28T03:01:39.399Z,99770.88
2022-08-28T03:04:42.033Z,99771.87
2022-08-28T03:07:44.578Z,99779.16
2022-08-28T03:10:47.064Z,99807.62
2022-08-28T03:13:52.992Z,99828.13
2022-08-28T03:16:55.834Z,99817.41
2022-08-28T03:19:59.050Z,99795.19
2022-08-28T03:23:20.454Z,99800.47
2022-08-28T03:26:24.056Z,99795.16
2022-08-28T03:29:29.171Z,99806.81
2022-08-28T03:32:31.785Z,99817.59
2022-08-28T03:35:34.278Z,99807.81
2022-08-28T03:38:36.752Z,99798.84
2022-08-28T03:41:39.859Z,99810.47
2022-08-28T03:44:42.267Z,99811.47
2022-08-28T03:47:44.722Z,99818.66
2022-08-28T03:50:47.826Z,99820.31
2022-08-28T03:53:51.765Z,99824.03
2022-08-28T03:56:54.201Z,99825.75
2022-08-28T03:59:56.770Z,99820.66
2022-08-28T04:02:59.184Z,99826.19
2022-08-28T04:06:01.987Z,99812.84
2022-08-28T04:09:04.734Z,99810.25
2022-08-28T04:12:07.730Z,99815.66
2022-08-28T04:15:11.041Z,99812.31
2022-08-28T04:18:13.893Z,99817.87
2022-08-28T04:21:18.290Z,99819.59
2022-08-28T04:24:20.798Z,99809.84
2022-08-28T04:27:23.231Z,99820.38
2022-08-28T04:30:25.740Z,99811.31
2022-08-28T04:33:28.934Z,99815.59
2022-08-28T04:36:33.595Z,99820.13
2022-08-28T04:39:36.100Z,99817.44
2022-08-28T04:42:39.996Z,99812.13
2022-08-28T04:45:43.480Z,99813.91
2022-08-28T04:48:46.020Z,99822.84
2022-08-28T04:51:48.532Z,99826.97
2022-08-28T04:54:51.052Z,99832.06
2022-08-28T04:57:53.580Z,99832.72
2022-08-28T05:00:56.552Z,99845.09
2022-08-28T05:04:00.865Z,99848.53
2022-08-28T05:07:03.526Z,99847.53
2022-08-28T05:10:06.162Z,99852.69
2022-08-28T05:13:09.665Z,99850.00
2022-08-28T05:16:15.578Z,99858.69
2022-08-28T05:19:19.416Z,99853.09
2022-08-28T05:22:21.885Z,99851.16
2022-08-28T05:25:24.383Z,99850.94
2022-08-28T05:28:27.164Z,99857.78
2022-08-28T05:31:30.789Z,99860.09
2022-08-28T05:34:33.270Z,99854.78
2022-08-28T05:37:35.809Z,99865.25
2022-08-28T05:40:43.385Z,99865.78
2022-08-28T05:43:45.885Z,99852.94
2022-08-28T05:46:49.274Z,99857.38
2022-08-28T05:49:52.529Z,99851.09
2022-08-28T05:52:54.996Z,99854.63
2022-08-28T05:55:57.491Z,99853.84
2022-08-28T05:59:00.704Z,99853.94
2022-08-28T06:02:05.575Z,99856.78
2022-08-28T06:05:09.053Z,99845.75
2022-08-28T06:08:15.811Z,99856.13
2022-08-28T06:11:21.806Z,99854.22
2022-08-28T06:14:27.126Z,99856.66
2022-08-28T06:17:31.083Z,99855.53
2022-08-28T06:20:37.376Z,99853.66
2022-08-28T06:23:41.139Z,99858.56
2022-08-28T06:26:43.720Z,99849.34
2022-08-28T06:29:46.602Z,99843.81
2022-08-28T06:32:48.796Z,99850.50
2022-08-28T06:35:52.720Z,99842.00
2022-08-28T06:38:55.642Z,99847.03
2022-08-28T06:41:58.401Z,99861.69
2022-08-28T06:45:01.011Z,99849.34
2022-08-28T06:48:03.860Z,99855.50
2022-08-28T06:51:07.164Z,99867.16
2022-08-28T06:54:10.348Z,99860.03
2022-08-28T06:57:12.595Z,99864.25
2022-08-28T07:00:15.579Z,99867.84
2022-08-28T07:03:18.060Z,99866.53
2022-08-28T07:06:21.671Z,99862.31
2022-08-28T07:09:24.391Z,99859.97
2022-08-28T07:12:27.118Z,99859.97
2022-08-28T07:15:29.435Z,99869.69
2022-08-28T07:18:32.193Z,99867.53
2022-08-28T07:21:38.650Z,99874.09
2022-08-28T07:24:42.165Z,99882.62
2022-08-28T07:27:44.377Z,99879.94
2022-08-28T07:30:55.679Z,99868.84
2022-08-28T07:33:58.261Z,99870.38
2022-08-28T07:37:04.266Z,99886.56
2022-08-28T07:40:10.051Z,99883.16
2022-08-28T07:43:32.710Z,99880.59
2022-08-28T07:46:35.483Z,99887.28
2022-08-28T07:49:39.153Z,99881.84
2022-08-28T07:52:41.403Z,99890.25
2022-08-28T07:55:44.095Z,99891.94
2022-08-28T07:58:46.748Z,99885.72
2022-08-28T08:01:50.853Z,99879.44
2022-08-28T08:04:53.658Z,99881.88
2022-08-28T08:07:56.067Z,99884.94
2022-08-28T08:11:00.286Z,99883.47
2022-08-28T08:14:05.614Z,99885.69
2022-08-28T08:17:08.787Z,99892.50
2022-08-28T08:20:11.492Z,99886.59
2022-08-28T08:23:14.068Z,99895.09
2022-08-28T08:26:18.273Z,99892.59
2022-08-28T08:29:21.102Z,99892.91
2022-08-28T08:32:23.750Z,99899.50
2022-08-28T08:35:26.343Z,99895.50
2022-08-28T08:38:30.015Z,99900.94
2022-08-28T08:41:34.952Z,99896.66
2022-08-28T08:44:42.090Z,99902.69
2022-08-28T08:47:50.064Z,99899.50
2022-08-28T08:50:53.695Z,99901.25
2022-08-28T08:54:08.611Z,99898.50
2022-08-28T08:57:13.018Z,99896.69
2022-08-28T09:00:16.167Z,99904.28
2022-08-28T09:03:22.991Z,99901.44
2022-08-28T09:06:44.719Z,99898.69
2022-08-28T09:09:50.045Z,99899.91
2022-08-28T09:12:56.579Z,99897.41
2022-08-28T09:16:00.177Z,99905.16
2022-08-28T09:19:03.049Z,99895.84
2022-08-28T09:22:05.483Z,99894.63
2022-08-28T09:25:09.398Z,99898.69
2022-08-28T09:28:15.723Z,99901.00
2022-08-28T09:31:33.537Z,99903.94
2022-08-28T09:34:38.960Z,99896.22
2022-08-28T09:37:42.855Z,99903.47
2022-08-28T09:41:04.107Z,99896.44
2022-08-28T09:44:06.676Z,99901.09
2022-08-28T09:47:09.080Z,99900.13
2022-08-28T09:50:29.731Z,99901.84
2022-08-28T09:53:34.176Z,99897.72
2022-08-28T09:56:39.355Z,99900.38
2022-08-28T09:59:42.248Z,99892.63
2022-08-28T10:02:58.234Z,99895.72
2022-08-28T10:06:20.019Z,99885.66
2022-08-28T10:09:28.456Z,99882.28
2022-08-28T10:12:50.303Z,99880.19
2022-08-28T10:15:52.556Z,99888.91
2022-08-28T10:19:05.832Z,99881.47
2022-08-28T10:22:08.283Z,99878.97
2022-08-28T10:25:14.070Z,99877.81
2022-08-28T10:28:25.561Z,99875.94
2022-08-28T10:31:47.497Z,99878.09
2022-08-28T10:34:49.858Z,99881.19
2022-08-28T10:38:16.340Z,99883.44
2022-08-28T10:41:25.090Z,99879.44
2022-08-28T10:44:32.948Z,99881.91
2022-08-28T10:47:38.325Z,99872.22
2022-08-28T10:50:47.160Z,99875.44
2022-08-28T10:53:55.545Z,99872.97
2022-08-28T10:57:05.792Z,99867.16
2022-08-28T11:00:13.785Z,99863.78
2022-08-28T11:03:34.036Z,99856.09
2022-08-28T11:06:41.698Z,99855.78
2022-08-28T11:09:47.753Z,99855.69
2022-08-28T11:12:51.828Z,99857.88
2022-08-28T11:15:54.751Z,99850.81
2022-08-28T11:19:14.408Z,99860.34
2022-08-28T11:22:28.418Z,99848.63
2022-08-28T11:25:45.406Z,99857.16
2022-08-28T11:28:49.917Z,99848.84
2022-08-28T11:32:12.072Z,99849.81
2022-08-28T11:35:21.018Z,99852.19
2022-08-28T11:38:41.897Z,99850.84
2022-08-28T11:42:03.308Z,99850.25
2022-08-28T11:45:07.271Z,99843.38
2022-08-28T11:48:30.155Z,99842.19
2022-08-28T11:51:35.349Z,99842.19
2022-08-28T11:54:45.591Z,99838.56
2022-08-28T12:01:09.590Z,99834.25
2022-08-28T12:04:17.617Z,99833.41
2022-08-28T12:07:22.029Z,99831.91
2022-08-28T12:10:24.651Z,99835.50
2022-08-28T12:13:45.664Z,99830.88
2022-08-28T12:17:03.696Z,99823.38
2022-08-28T12:20:18.557Z,99820.94
2022-08-28T12:23:24.037Z,99825.53
2022-08-28T12:26:32.025Z,99827.72
2022-08-28T12:29:49.149Z,99817.50
2022-08-28T12:32:56.831Z,99820.50
2022-08-28T12:36:00.902Z,99816.28
2022-08-28T12:39:03.574Z,99820.56
2022-08-28T12:42:14.729Z,99820.03
2022-08-28T12:45:27.933Z,99815.84
2022-08-28T12:48:35.039Z,99816.84
2022-08-28T12:51:37.698Z,99813.66
2022-08-28T12:54:40.589Z,99814.31
2022-08-28T12:57:46.851Z,99819.47
2022-08-28T13:00:55.740Z,99809.78
2022-08-28T13:04:01.363Z,99821.22
2022-08-28T13:07:24.100Z,99809.19
2022-08-28T13:10:31.832Z,99802.03
2022-08-28T13:13:37.148Z,99802.97
2022-08-28T13:16:41.757Z,99810.66
2022-08-28T13:19:44.382Z,99809.13
2022-08-28T13:22:50.862Z,99798.09
2022-08-28T13:26:03.070Z,99806.09
2022-08-28T13:29:35.210Z,99800.91
2022-08-28T13:32:39.073Z,99796.44
2022-08-28T13:35:42.129Z,99793.84
2022-08-28T13:38:44.940Z,99791.34
2022-08-28T13:41:49.225Z,99791.12
2022-08-28T13:44:55.259Z,99789.38
2022-08-28T13:47:57.686Z,99791.34
2022-08-28T13:51:03.109Z,99779.56
2022-08-28T13:54:07.574Z,99778.00
2022-08-28T13:57:11.345Z,99780.44
2022-08-28T14:00:14.190Z,99774.66
2022-08-28T14:03:35.849Z,99777.34
2022-08-28T14:06:38.546Z,99770.91
2022-08-28T14:09:41.146Z,99766.97
2022-08-28T14:12:46.748Z,99773.56
2022-08-28T14:15:49.593Z,99768.16
2022-08-28T14:18:52.892Z,99760.16
2022-08-28T14:21:56.002Z,99762.31
2022-08-28T14:24:58.451Z,99770.78
2022-08-28T14:28:01.547Z,99760.59
2022-08-28T14:31:05.164Z,99771.63
2022-08-28T14:34:09.028Z,99763.72
2022-08-28T14:37:11.707Z,99762.84
2022-08-28T14:40:14.310Z,99772.16
2022-08-28T14:43:16.897Z,99772.78
2022-08-28T14:46:24.971Z,99776.22
2022-08-28T14:49:28.279Z,99772.53
2022-08-28T14:52:30.789Z,99773.37
2022-08-28T14:55:38.413Z,99768.50
2022-08-28T14:58:41.408Z,99772.09
2022-08-28T15:01:44.970Z,99775.88
2022-08-28T15:04:47.685Z,99772.69
2022-08-28T15:07:50.126Z,99771.31
2022-08-28T15:10:52.629Z,99776.09
2022-08-28T15:13:55.591Z,99770.38
2022-08-28T15:16:58.371Z,99783.53
2022-08-28T15:20:01.165Z,99774.09
2022-08-28T15:23:03.743Z,99774.91
2022-08-28T15:26:06.185Z,99776.06
2022-08-28T15:29:10.790Z,99779.50
2022-08-28T15:32:13.301Z,99782.09
2022-08-28T15:35:16.791Z,99785.19
2022-08-28T15:38:19.259Z,99781.19
2022-08-28T15:41:25.073Z,99784.34
2022-08-28T15:44:28.155Z,99785.78
2022-08-28T15:47:30.774Z,99785.56
2022-08-28T15:50:33.213Z,99795.34
2022-08-28T15:53:35.761Z,99792.16
2022-08-28T15:56:38.639Z,99805.28
2022-08-28T15:59:50.064Z,99796.59
2022-08-28T16:02:59.756Z,99794.44
2022-08-28T16:06:02.738Z,99791.12
2022-08-28T16:09:06.155Z,99793.56
2022-08-28T16:12:10.898Z,99791.34
2022-08-28T16:15:14.106Z,99785.25
2022-08-28T16:18:22.098Z,99795.91
2022-08-28T16:21:28.036Z,99789.59
2022-08-28T16:24:31.005Z,99791.41
2022-08-28T16:27:34.001Z,99787.41
2022-08-28T16:30:37.811Z,99782.09
2022-08-28T16:33:46.594Z,99779.25
2022-08-28T16:36:50.355Z,99781.22
2022-08-28T16:39:54.622Z,99787.66
2022-08-28T16:42:57.164Z,99792.63
2022-08-28T16:45:59.801Z,99798.34
2022-08-28T16:49:02.593Z,99806.47
2022-08-28T16:52:05.215Z,99824.00
2022-08-28T16:55:09.277Z,99828.63
2022-08-28T16:58:16.742Z,99822.59
2022-08-28T17:01:21.541Z,99824.72
2022-08-28T17:04:26.825Z,99826.22
2022-08-28T17:07:30.546Z,99837.28
2022-08-28T17:10:34.782Z,99838.28
2022-08-28T17:13:37.901Z,99845.69
2022-08-28T17:16:40.635Z,99837.12
2022-08-28T17:19:43.191Z,99839.28
2022-08-28T17:22:45.680Z,99850.38
2022-08-28T17:25:48.635Z,99854.13
2022-08-28T17:28:51.842Z,99851.81
2022-08-28T17:31:54.862Z,99865.59
2022-08-28T17:34:57.514Z,99865.00
2022-08-28T17:38:00.206Z,99868.06
2022-08-28T17:41:06.315Z,99874.34
2022-08-28T17:44:09.130Z,99872.78
2022-08-28T17:47:12.070Z,99875.06
2022-08-28T17:50:14.583Z,99884.16
2022-08-28T17:53:18.070Z,99892.41
2022-08-28T17:56:20.952Z,99898.78
2022-08-28T17:59:38.479Z,99905.34
2022-08-28T18:02:40.987Z,99908.09
2022-08-28T18:05:43.767Z,99916.22
2022-08-28T18:08:47.823Z,99905.91
2022-08-28T18:11:51.822Z,99912.25
2022-08-28T18:14:54.595Z,99914.97
2022-08-28T18:17:57.934Z,99910.53
2022-08-28T18:21:01.647Z,99903.50
2022-08-28T18:24:04.947Z,99904.56
2022-08-28T18:27:08.239Z,99902.75
2022-08-28T18:30:11.264Z,99902.00
2022-08-28T18:33:14.860Z,99913.62
2022-08-28T18:36:17.784Z,99923.44
2022-08-28T18:39:29.905Z,99929.69
2022-08-28T18:42:32.678Z,99923.50
2022-08-28T18:45:35.803Z,99931.53
2022-08-28T18:48:38.474Z,99927.25
2022-08-28T18:51:41.775Z,99934.47
2022-08-28T18:54:45.251Z,99937.84
2022-08-28T18:57:48.936Z,99939.00
2022-08-28T19:00:54.436Z,99939.16
2022-08-28T19:03:57.624Z,99935.62
2022-08-28T19:07:00.173Z,99937.50
2022-08-28T19:10:03.679Z,99940.25
2022-08-28T19:13:07.139Z,99930.47
2022-08-28T19:16:10.283Z,99939.44
2022-08-28T19:19:13.002Z,99936.00
2022-08-28T19:22:15.540Z,99949.47
2022-08-28T19:25:27.998Z,99945.22
2022-08-28T19:28:31.583Z,99953.19
2022-08-28T19:31:34.161Z,99957.03
2022-08-28T19:34:36.716Z,99949.94
2022-08-28T19:37:42.588Z,99953.72
2022-08-28T19:40:45.819Z,99964.44
2022-08-28T19:43:48.925Z,99973.53
2022-08-28T19:46:51.707Z,99976.38
2022-08-28T19:49:55.054Z,99978.34
2022-08-28T19:52:59.768Z,99977.59
2022-08-28T19:56:03.064Z,99980.53
2022-08-28T19:59:07.462Z,99988.72
2022-08-28T20:02:10.489Z,99996.06
2022-08-28T20:05:14.608Z,100002.41
2022-08-28T20:08:17.965Z,100001.66
2022-08-28T20:11:25.162Z,100008.97
2022-08-28T20:14:28.046Z,100002.78
2022-08-28T20:17:31.568Z,100002.87
2022-08-28T20:20:34.122Z,99997.66
2022-08-28T20:23:37.068Z,100003.94
2022-08-28T20:26:39.881Z,100001.41
2022-08-28T20:29:42.871Z,100004.19
2022-08-28T20:32:45.507Z,100005.19
2022-08-28T20:35:48.434Z,100000.94
2022-08-28T20:38:51.059Z,100003.72
2022-08-28T20:41:54.184Z,100006.53
2022-08-28T20:44:57.045Z,100012.88
2022-08-28T20:47:59.815Z,100009.31
2022-08-28T20:51:02.321Z,100011.31
2022-08-28T20:54:05.079Z,100013.22
2022-08-28T20:57:09.314Z,100015.25
2022-08-28T21:00:12.878Z,100011.81
2022-08-28T21:03:15.691Z,100006.44
2022-08-28T21:06:18.439Z,100011.97
2022-08-28T21:09:22.956Z,100010.28
2022-08-28T21:12:43.923Z,100012.22
2022-08-28T21:15:46.929Z,100020.44
2022-08-28T21:19:14.458Z,100023.09
2022-08-28T21:22:13.104Z,100016.19
2022-08-28T21:25:20.406Z,100020.66
2022-08-28T21:28:22.756Z,100030.63
2022-08-28T21:31:25.594Z,100032.47
2022-08-28T21:34:27.869Z,100035.25
2022-08-28T21:37:31.219Z,100027.28
2022-08-28T21:40:35.646Z,100031.78
2022-08-28T21:43:38.935Z,100035.31
2022-08-28T21:46:42.068Z,100035.53
2022-08-28T21:49:47.428Z,100027.56
2022-08-28T21:52:49.810Z,100023.19
2022-08-28T21:55:53.918Z,100034.81
2022-08-28T21:58:56.604Z,100032.22
2022-08-28T22:01:59.509Z,100033.84
2022-08-28T22:05:02.042Z,100029.47
2022-08-28T22:08:05.106Z,100032.19
2022-08-28T22:11:08.413Z,100033.13
2022-08-28T22:14:11.121Z,100043.00
2022-08-28T22:17:15.095Z,100034.09
2022-08-28T22:20:17.643Z,100042.16
2022-08-28T22:23:20.468Z,100040.28
2022-08-28T22:26:22.887Z,100034.41
2022-08-28T22:29:25.639Z,100036.34
2022-08-28T22:32:28.127Z,100035.50
2022-08-28T22:35:30.730Z,100039.22
2022-08-28T22:38:33.630Z,100034.78
2022-08-28T22:41:37.436Z,100032.97
2022-08-28T22:44:39.957Z,100033.19
2022-08-28T22:47:42.476Z,100040.50
2022-08-28T22:50:45.925Z,100037.06
2022-08-28T22:53:48.718Z,100039.91
2022-08-28T22:56:51.277Z,100038.16
2022-08-28T22:59:54.011Z,100033.84
2022-08-28T23:02:57.076Z,100036.56
2022-08-28T23:05:59.628Z,100038.28
2022-08-28T23:09:02.071Z,100034.94
2022-08-28T23:12:05.193Z,100050.22
2022-08-28T23:15:09.951Z,100040.50
2022-08-28T23:18:12.774Z,100038.78
2022-08-28T23:21:15.687Z,100044.31
2022-08-28T23:24:21.572Z,100045.25
2022-08-28T23:27:39.473Z,100051.59
2022-08-28T23:30:48.302Z,100048.06
2022-08-28T23:33:51.269Z,100046.41
2022-08-28T23:36:54.141Z,100057.97
2022-08-28T23:39:56.614Z,100061.66
2022-08-28T23:43:00.610Z,100059.88
2022-08-28T23:46:03.451Z,100065.06
2022-08-28T23:49:07.414Z,100059.09
2022-08-28T23:52:10.221Z,100063.56
2022-08-28T23:55:13.782Z,100061.81
2022-08-28T23:58:16.677Z,100063.66
